Time;durP1;ratioP1;P1;durP2;ratioP2;P2;SDS_P1;SDS_P2;PMS_P1;PMS_P2;Temp;Humidity;BMP_temperature;BMP_pressure;BME280_temperature;BME280_humidity;BME280_pressure;Samples;Min_cycle;Max_cycle;Signal;HPM_P1;HPM_P2
2022/05/20 00:01:11;;;;;;;10.97;5.33;;;17.60;99.90;;;;;;4989479;28;20209;-72
2022/05/20 00:03:39;;;;;;;6.40;5.47;;;17.50;99.90;;;;;;4982360;28;20206;-71
2022/05/20 00:06:07;;;;;;;9.93;5.37;;;17.50;99.90;;;;;;4992199;28;20365;-71
2022/05/20 00:08:33;;;;;;;7.23;5.77;;;17.50;99.90;;;;;;4989285;28;20267;-71
2022/05/20 00:11:00;;;;;;;10.17;6.13;;;17.50;99.90;;;;;;4988557;28;20201;-71
2022/05/20 00:13:28;;;;;;;8.87;6.47;;;17.60;99.90;;;;;;4986353;28;20212;-71
2022/05/20 00:15:55;;;;;;;11.97;6.03;;;17.70;99.90;;;;;;4982440;28;20631;-72
2022/05/20 00:18:22;;;;;;;7.87;5.87;;;17.60;99.90;;;;;;4985613;28;20208;-72
2022/05/20 00:20:49;;;;;;;10.20;5.73;;;17.60;99.90;;;;;;4987430;28;20264;-72
2022/05/20 00:23:15;;;;;;;6.90;5.00;;;17.70;99.90;;;;;;4983075;28;20205;-70
2022/05/20 00:25:48;;;;;;;11.30;5.80;;;17.70;99.90;;;;;;4988497;28;20303;-70
2022/05/20 00:28:21;;;;;;;8.03;5.73;;;17.70;99.90;;;;;;4987441;28;20232;-71
2022/05/20 00:30:54;;;;;;;8.83;5.70;;;17.90;99.90;;;;;;4985832;28;20204;-72
2022/05/20 00:33:21;;;;;;;8.07;5.50;;;17.80;99.90;;;;;;4987747;28;20244;-70
2022/05/20 00:35:48;;;;;;;9.67;6.33;;;17.70;99.90;;;;;;4986250;28;20588;-70
2022/05/20 00:38:16;;;;;;;9.17;5.20;;;17.70;99.90;;;;;;4989421;28;20251;-71
2022/05/20 00:40:44;;;;;;;7.87;5.93;;;17.60;99.90;;;;;;4982736;28;20205;-70
2022/05/20 00:43:27;;;;;;;9.37;5.70;;;17.60;99.90;;;;;;4987372;28;20208;-71
2022/05/20 00:45:57;;;;;;;7.03;5.40;;;17.50;99.90;;;;;;4987783;28;20217;-71
2022/05/20 00:48:24;;;;;;;11.50;6.20;;;17.60;99.90;;;;;;4989041;28;20251;-70
2022/05/20 00:50:59;;;;;;;7.17;5.60;;;17.70;99.90;;;;;;4985892;28;20201;-70
2022/05/20 00:53:32;;;;;;;9.33;6.30;;;17.80;99.90;;;;;;4985344;28;20626;-72
2022/05/20 00:55:58;;;;;;;11.37;6.70;;;17.70;99.90;;;;;;4987817;28;20253;-70
2022/05/20 00:58:27;;;;;;;12.20;6.87;;;18.00;99.90;;;;;;4985261;28;20200;-71
2022/05/20 01:00:55;;;;;;;7.97;5.97;;;18.00;99.90;;;;;;4984480;28;20197;-71
2022/05/20 01:03:26;;;;;;;9.50;6.23;;;18.00;99.90;;;;;;4987700;28;20661;-70
2022/05/20 01:05:55;;;;;;;9.47;6.67;;;18.00;99.90;;;;;;4986695;28;20217;-70
2022/05/20 01:08:24;;;;;;;10.33;6.40;;;18.00;99.90;;;;;;4983645;28;20201;-70
2022/05/20 01:10:52;;;;;;;9.53;7.07;;;17.90;99.90;;;;;;4983550;28;20208;-71
2022/05/20 01:13:20;;;;;;;11.20;6.70;;;17.90;99.90;;;;;;4985768;28;20989;-70
2022/05/20 01:15:47;;;;;;;8.80;5.97;;;17.70;99.90;;;;;;4983611;28;20217;-71
2022/05/20 01:18:15;;;;;;;9.23;6.83;;;17.60;99.90;;;;;;4988051;28;20468;-71
2022/05/20 01:20:48;;;;;;;10.87;6.90;;;17.70;99.90;;;;;;4976832;28;20200;-70
2022/05/20 01:23:17;;;;;;;8.47;6.00;;;17.70;99.90;;;;;;4986079;28;20420;-68
2022/05/20 01:25:48;;;;;;;8.73;6.37;;;17.70;99.90;;;;;;4984816;28;20228;-70
2022/05/20 01:28:16;;;;;;;9.63;7.00;;;17.50;99.90;;;;;;4981089;28;20613;-71
2022/05/20 01:30:53;;;;;;;14.50;7.67;;;17.60;99.90;;;;;;4977675;28;20197;-70
2022/05/20 01:33:43;;;;;;;14.17;7.37;;;17.50;99.90;;;;;;4984395;28;20778;-70
2022/05/20 01:36:15;;;;;;;13.47;7.40;;;17.50;99.90;;;;;;4987147;28;20220;-70
2022/05/20 01:38:42;;;;;;;8.03;6.63;;;17.70;99.90;;;;;;4988021;28;20255;-70
2022/05/20 01:41:12;;;;;;;10.87;6.70;;;17.60;99.90;;;;;;4985982;28;20251;-70
2022/05/20 01:44:16;;;;;;;10.87;7.47;;;17.60;99.90;;;;;;4983830;28;20242;-71
2022/05/20 01:47:12;;;;;;;12.57;7.00;;;17.70;99.90;;;;;;4975989;28;20216;-70
2022/05/20 01:49:53;;;;;;;12.47;7.77;;;17.70;99.90;;;;;;4984102;28;20259;-71
2022/05/20 01:52:50;;;;;;;15.23;8.57;;;17.70;99.90;;;;;;4980399;28;20205;-70
2022/05/20 01:55:19;;;;;;;10.07;7.73;;;17.80;99.90;;;;;;4989277;28;20216;-70
2022/05/20 01:57:55;;;;;;;12.93;7.50;;;17.70;99.90;;;;;;4990567;28;20220;-71
2022/05/20 02:00:32;;;;;;;11.17;7.37;;;17.60;99.90;;;;;;4984265;28;20201;-70
2022/05/20 02:03:19;;;;;;;10.07;7.47;;;17.50;99.90;;;;;;4987536;28;20625;-70
2022/05/20 02:05:49;;;;;;;9.87;7.07;;;17.50;99.90;;;;;;4991520;28;20217;-72
2022/05/20 02:08:29;;;;;;;12.40;7.10;;;17.60;99.90;;;;;;4991356;28;20208;-72
2022/05/20 02:11:12;;;;;;;9.30;6.70;;;17.50;99.90;;;;;;4988776;28;20546;-70
2022/05/20 02:13:45;;;;;;;11.07;7.07;;;17.40;99.90;;;;;;4990702;28;20232;-70
2022/05/20 02:16:21;;;;;;;9.53;6.80;;;17.40;99.90;;;;;;4986954;28;20212;-71
2022/05/20 02:18:59;;;;;;;10.83;7.33;;;17.40;99.90;;;;;;4983698;28;20973;-70
2022/05/20 02:21:31;;;;;;;14.13;7.80;;;17.70;99.90;;;;;;4985359;28;20205;-70
2022/05/20 02:24:02;;;;;;;10.13;7.10;;;17.70;99.90;;;;;;4986396;28;20204;-71
2022/05/20 02:26:33;;;;;;;9.93;7.47;;;17.60;99.90;;;;;;4984308;28;20221;-71
2022/05/20 02:29:21;;;;;;;12.97;7.73;;;17.60;99.90;;;;;;4982558;28;20316;-70
2022/05/20 02:32:14;;;;;;;13.67;7.97;;;17.60;99.90;;;;;;4985666;28;20231;-69
2022/05/20 02:34:41;;;;;;;13.70;7.60;;;17.60;99.90;;;;;;4995923;28;20217;-72
2022/05/20 02:37:25;;;;;;;12.17;7.57;;;17.50;99.90;;;;;;4982198;28;20637;-72
2022/05/20 02:39:53;;;;;;;13.43;8.27;;;17.40;99.90;;;;;;4987259;28;20189;-71
2022/05/20 02:42:19;;;;;;;12.90;7.33;;;17.30;99.90;;;;;;4988019;28;20726;-71
2022/05/20 02:44:46;;;;;;;16.27;8.37;;;17.20;99.90;;;;;;4986595;28;20212;-71
2022/05/20 02:47:13;;;;;;;11.83;8.10;;;17.30;99.90;;;;;;4987340;28;20226;-71
2022/05/20 02:49:40;;;;;;;18.37;8.70;;;17.30;99.90;;;;;;4984936;28;20251;-71
2022/05/20 02:52:07;;;;;;;16.40;8.97;;;17.30;99.90;;;;;;4986319;28;20208;-70
2022/05/20 02:54:35;;;;;;;15.33;8.97;;;17.30;99.90;;;;;;4986347;28;20229;-70
2022/05/20 02:57:03;;;;;;;11.90;8.10;;;17.30;99.90;;;;;;4980714;28;20213;-71
2022/05/20 03:05:11;;;;;;;12.53;7.90;;;17.20;99.90;;;;;;4984894;28;20308;-72
2022/05/20 03:07:38;;;;;;;12.80;7.90;;;17.10;99.90;;;;;;4981333;28;20218;-71
2022/05/20 03:10:05;;;;;;;13.27;8.10;;;17.00;99.90;;;;;;4988221;28;20203;-69
2022/05/20 03:12:35;;;;;;;11.53;7.60;;;17.00;99.90;;;;;;4991077;28;20635;-71
2022/05/20 03:15:08;;;;;;;10.33;7.87;;;16.90;99.90;;;;;;4984964;28;20217;-71
2022/05/20 03:17:34;;;;;;;11.67;7.73;;;17.00;99.90;;;;;;4982977;28;20229;-69
2022/05/20 03:20:03;;;;;;;12.63;8.00;;;17.00;99.90;;;;;;4985530;28;20236;-71
2022/05/20 03:22:32;;;;;;;11.90;8.53;;;16.90;99.90;;;;;;4986536;28;20202;-72
2022/05/20 03:24:59;;;;;;;10.53;8.40;;;16.90;99.90;;;;;;4989656;28;20717;-71
2022/05/20 03:27:27;;;;;;;13.23;8.50;;;16.90;99.90;;;;;;4988044;28;20665;-71
2022/05/20 03:29:54;;;;;;;21.90;10.27;;;17.00;99.90;;;;;;4985003;28;20637;-71
2022/05/20 03:32:21;;;;;;;25.53;11.00;;;17.00;99.90;;;;;;4986032;28;20205;-71
2022/05/20 03:34:47;;;;;;;24.83;10.73;;;17.00;99.90;;;;;;4991146;28;20590;-71
2022/05/20 03:37:14;;;;;;;32.67;12.00;;;17.00;99.90;;;;;;4985500;28;20228;-72
2022/05/20 03:39:41;;;;;;;19.67;11.17;;;17.10;99.90;;;;;;4985549;28;20204;-71
2022/05/20 03:42:08;;;;;;;23.67;12.27;;;17.10;99.90;;;;;;4979431;28;20273;-71
2022/05/20 03:44:34;;;;;;;25.63;12.30;;;17.10;99.90;;;;;;4982443;28;20731;-69
2022/05/20 03:47:02;;;;;;;22.33;12.43;;;17.20;99.90;;;;;;4983424;28;20217;-71
2022/05/20 03:49:29;;;;;;;17.50;11.20;;;17.20;99.90;;;;;;4980396;28;20205;-71
2022/05/20 03:51:57;;;;;;;17.33;11.40;;;17.20;99.90;;;;;;4987151;28;20205;-72
2022/05/20 03:54:28;;;;;;;20.87;12.40;;;17.20;99.90;;;;;;4980850;28;20225;-72
2022/05/20 03:56:55;;;;;;;22.70;12.73;;;17.20;99.90;;;;;;4986976;28;20216;-72
2022/05/20 03:59:21;;;;;;;18.83;10.87;;;17.30;99.90;;;;;;4984669;28;20260;-71
2022/05/20 04:01:57;;;;;;;18.03;10.73;;;17.30;99.90;;;;;;4979847;28;20341;-71
2022/05/20 04:04:33;;;;;;;19.33;11.47;;;17.30;99.90;;;;;;4981074;28;20688;-71
2022/05/20 04:07:03;;;;;;;15.60;11.47;;;17.30;99.90;;;;;;4980735;28;20227;-72
2022/05/20 04:09:30;;;;;;;20.93;11.90;;;17.30;99.90;;;;;;4984052;28;20255;-71
2022/05/20 04:11:59;;;;;;;20.63;12.07;;;17.40;99.90;;;;;;4981364;28;20201;-73
2022/05/20 04:14:27;;;;;;;17.77;11.43;;;17.40;99.90;;;;;;4984785;28;20720;-71
2022/05/20 04:17:00;;;;;;;16.10;11.70;;;17.20;99.90;;;;;;4987019;28;20220;-73
2022/05/20 04:19:29;;;;;;;18.90;11.43;;;17.10;99.90;;;;;;4980507;28;20197;-73
2022/05/20 04:21:59;;;;;;;15.93;11.13;;;17.10;99.90;;;;;;4983354;28;20201;-72
2022/05/20 04:24:26;;;;;;;17.47;10.13;;;17.10;99.90;;;;;;4985479;28;20207;-71
2022/05/20 04:26:53;;;;;;;18.00;11.30;;;17.10;99.90;;;;;;4985566;28;20220;-72
2022/05/20 04:29:19;;;;;;;19.67;12.13;;;17.10;99.90;;;;;;4985445;28;20228;-72
2022/05/20 04:31:49;;;;;;;18.30;11.83;;;17.20;99.90;;;;;;4982591;28;20201;-71
2022/05/20 04:34:17;;;;;;;17.33;11.80;;;17.20;99.90;;;;;;4985588;28;20229;-71
2022/05/20 04:36:44;;;;;;;15.83;10.90;;;17.20;99.90;;;;;;4985181;28;20234;-72
2022/05/20 04:39:11;;;;;;;20.70;11.80;;;17.20;99.90;;;;;;4975838;28;20194;-72
2022/05/20 04:47:23;;;;;;;18.97;12.33;;;17.20;99.90;;;;;;4986111;28;20217;-72
2022/05/20 04:49:50;;;;;;;24.60;12.77;;;17.20;99.90;;;;;;4987273;28;20219;-71
2022/05/20 04:52:17;;;;;;;23.60;13.23;;;17.20;99.90;;;;;;4985543;28;20209;-70
2022/05/20 04:54:50;;;;;;;26.97;14.37;;;17.30;99.90;;;;;;4985396;28;20797;-70
2022/05/20 04:57:30;;;;;;;27.10;14.83;;;17.30;99.90;;;;;;4984117;28;20224;-68
2022/05/20 05:00:29;;;;;;;22.50;14.00;;;17.40;99.90;;;;;;4985629;28;20190;-71
2022/05/20 05:02:56;;;;;;;20.53;12.47;;;17.40;99.90;;;;;;4975299;28;20252;-71
2022/05/20 05:05:26;;;;;;;20.77;12.47;;;17.40;99.90;;;;;;4982916;28;20205;-71
2022/05/20 05:07:54;;;;;;;21.13;12.63;;;17.40;99.90;;;;;;4982585;28;20612;-69
2022/05/20 05:10:23;;;;;;;19.03;13.33;;;17.30;99.90;;;;;;4979833;28;20201;-71
2022/05/20 05:12:50;;;;;;;23.13;12.73;;;17.40;99.90;;;;;;4983042;28;20196;-71
2022/05/20 05:15:18;;;;;;;21.10;13.90;;;17.60;99.90;;;;;;4979345;28;20614;-68
2022/05/20 05:20:32;;;;;;;22.27;11.37;;;17.50;99.90;;;;;;4978889;28;20200;-72
2022/05/20 05:22:59;;;;;;;16.67;11.90;;;17.60;99.90;;;;;;4987210;28;20216;-71
2022/05/20 05:25:29;;;;;;;20.60;12.50;;;17.70;99.90;;;;;;4984479;28;20209;-72
2022/05/20 05:27:55;;;;;;;18.20;12.00;;;17.80;99.90;;;;;;4979620;28;21687;-71
2022/05/20 05:30:23;;;;;;;22.17;13.13;;;18.00;99.90;;;;;;4982974;28;20614;-71
2022/05/20 05:32:49;;;;;;;18.13;12.17;;;18.20;99.90;;;;;;4985853;28;20201;-70
2022/05/20 05:35:24;;;;;;;16.37;11.50;;;18.30;99.90;;;;;;4982907;28;20230;-71
2022/05/20 05:37:52;;;;;;;18.60;11.90;;;18.50;99.90;;;;;;4984314;28;20200;-71
2022/05/20 05:40:21;;;;;;;18.63;11.37;;;18.60;99.90;;;;;;4978923;28;20197;-71
2022/05/20 05:42:48;;;;;;;16.10;10.83;;;18.80;99.90;;;;;;4984010;28;20263;-70
2022/05/20 05:45:19;;;;;;;14.63;10.33;;;18.80;99.90;;;;;;4980248;28;22835;-72
2022/05/20 05:48:04;;;;;;;16.40;10.03;;;18.90;99.90;;;;;;4984784;28;20799;-72
2022/05/20 05:50:32;;;;;;;17.90;12.17;;;19.10;99.90;;;;;;4977866;28;20199;-71
2022/05/20 05:53:15;;;;;;;17.03;10.90;;;19.30;99.90;;;;;;4985180;28;20616;-71
2022/05/20 05:55:44;;;;;;;14.80;10.87;;;19.40;99.90;;;;;;4978460;28;20732;-71
2022/05/20 05:58:12;;;;;;;15.67;10.63;;;19.40;99.90;;;;;;4979125;28;20201;-71
2022/05/20 06:00:38;;;;;;;17.83;10.03;;;19.50;99.90;;;;;;4981271;28;20251;-69
2022/05/20 06:03:06;;;;;;;14.67;10.47;;;19.70;99.90;;;;;;4983707;28;20200;-68
2022/05/20 06:05:34;;;;;;;18.47;10.13;;;19.80;99.90;;;;;;4977322;28;20685;-70
2022/05/20 06:08:01;;;;;;;14.23;8.50;;;19.80;99.90;;;;;;4984067;28;20578;-71
2022/05/20 06:10:28;;;;;;;12.40;8.43;;;19.60;99.90;;;;;;4987188;28;20559;-71
2022/05/20 06:12:55;;;;;;;16.80;10.23;;;19.50;99.90;;;;;;4983461;28;20209;-71
2022/05/20 06:15:23;;;;;;;16.42;11.40;;;19.50;99.90;;;;;;4983918;28;20213;-69
2022/05/20 06:17:51;;;;;;;15.50;10.37;;;19.40;99.90;;;;;;4985429;28;20266;-70
2022/05/20 06:20:20;;;;;;;16.50;11.40;;;19.50;99.90;;;;;;4984944;28;20196;-72
2022/05/20 06:22:46;;;;;;;14.75;10.70;;;19.60;99.90;;;;;;4980200;28;20208;-70
2022/05/20 06:25:13;;;;;;;18.37;10.40;;;19.80;99.90;;;;;;4980285;28;20735;-71
2022/05/20 06:27:40;;;;;;;22.37;11.53;;;20.00;99.90;;;;;;4981390;28;20217;-72
2022/05/20 06:30:10;;;;;;;17.77;9.52;;;20.20;99.90;;;;;;4981194;28;20295;-71
2022/05/20 06:32:37;;;;;;;16.85;10.23;;;20.30;99.90;;;;;;4985747;28;20212;-69
2022/05/20 06:40:45;;;;;;;15.52;9.00;;;20.70;99.90;;;;;;4981835;28;20197;-70
2022/05/20 06:43:14;;;;;;;19.08;10.15;;;20.80;99.90;;;;;;4974403;28;20672;-70
2022/05/20 06:45:42;;;;;;;14.00;9.13;;;20.90;99.90;;;;;;4976361;28;20523;-69
2022/05/20 06:48:50;;;;;;;13.70;8.07;;;21.40;99.90;;;;;;4978399;28;20482;-71
2022/05/20 06:51:21;;;;;;;13.30;7.88;;;21.90;99.90;;;;;;4980844;28;20209;-71
2022/05/20 06:53:48;;;;;;;13.35;8.07;;;22.20;99.90;;;;;;4983821;28;20200;-71
2022/05/20 06:56:15;;;;;;;13.38;8.38;;;22.10;99.90;;;;;;4981183;28;20236;-70
2022/05/20 06:58:42;;;;;;;12.95;8.43;;;22.00;99.90;;;;;;4984228;28;20337;-70
2022/05/20 07:01:10;;;;;;;14.23;7.88;;;22.10;99.90;;;;;;4983562;28;20567;-73
2022/05/20 07:03:36;;;;;;;12.20;8.23;;;22.10;99.90;;;;;;4986038;28;20192;-71
2022/05/20 07:06:04;;;;;;;13.02;6.78;;;22.50;99.90;;;;;;4980309;28;20310;-71
2022/05/20 07:08:32;;;;;;;9.93;7.28;;;23.00;99.90;;;;;;4983282;28;20367;-72
2022/05/20 07:11:05;;;;;;;10.40;5.85;;;23.30;99.90;;;;;;4986910;28;20672;-71
2022/05/20 07:13:40;;;;;;;13.20;5.93;;;23.30;99.90;;;;;;4982338;28;20200;-72
2022/05/20 07:16:07;;;;;;;10.00;6.68;;;23.20;99.90;;;;;;4979576;28;20229;-71
2022/05/20 07:18:34;;;;;;;10.65;8.18;;;23.40;99.90;;;;;;4980681;28;20208;-73
2022/05/20 07:21:02;;;;;;;13.60;7.40;;;23.30;99.90;;;;;;4980686;28;20197;-74
2022/05/20 07:23:29;;;;;;;8.07;5.80;;;23.40;99.90;;;;;;4978979;28;20814;-71
2022/05/20 07:25:56;;;;;;;13.60;7.15;;;23.80;99.90;;;;;;4986062;28;20551;-71
2022/05/20 07:28:23;;;;;;;9.63;5.63;;;24.00;99.90;;;;;;4980882;28;20206;-70
2022/05/20 07:30:51;;;;;;;8.48;5.10;;;24.30;99.90;;;;;;4982170;28;20205;-71
2022/05/20 07:33:18;;;;;;;10.10;5.30;;;24.90;99.90;;;;;;4983057;28;20208;-72
2022/05/20 07:35:44;;;;;;;10.02;6.47;;;25.20;99.90;;;;;;4984591;28;20283;-75
2022/05/20 07:38:11;;;;;;;6.85;5.53;;;25.40;99.90;;;;;;4979460;28;20616;-72
2022/05/20 07:40:38;;;;;;;8.50;5.03;;;25.10;99.90;;;;;;4979237;28;20198;-73
2022/05/20 07:43:11;;;;;;;8.25;5.82;;;25.00;99.90;;;;;;4982147;28;20194;-72
2022/05/20 07:45:38;;;;;;;8.95;6.03;;;24.70;99.90;;;;;;4983046;28;20203;-73
2022/05/20 07:48:05;;;;;;;12.82;6.40;;;24.50;99.90;;;;;;4983218;28;20201;-72
2022/05/20 07:50:38;;;;;;;11.82;5.70;;;24.50;99.90;;;;;;4983800;28;20201;-73
2022/05/20 07:53:20;;;;;;;8.82;5.63;;;24.80;99.90;;;;;;4986544;28;20216;-75
2022/05/20 07:55:57;;;;;;;11.43;6.95;;;25.40;99.90;;;;;;4977734;28;20655;-72
2022/05/20 07:58:33;;;;;;;9.32;7.25;;;25.50;99.90;;;;;;4981481;28;20219;-72
2022/05/20 08:01:17;;;;;;;9.57;7.07;;;25.70;99.90;;;;;;4977304;28;20676;-75
2022/05/20 08:06:32;;;;;;;8.68;7.57;;;25.80;99.90;;;;;;4986157;28;20220;-75
2022/05/20 08:08:59;;;;;;;12.77;8.85;;;25.60;99.90;;;;;;4982263;28;20221;-74
2022/05/20 08:11:28;;;;;;;12.48;8.95;;;25.20;99.90;;;;;;4982951;28;20209;-74
2022/05/20 08:13:55;;;;;;;13.73;8.95;;;24.60;99.90;;;;;;4978353;28;20205;-74
2022/05/20 08:16:21;;;;;;;14.98;8.75;;;24.80;99.90;;;;;;4979210;28;20239;-72
2022/05/20 08:18:48;;;;;;;16.83;8.85;;;25.10;99.90;;;;;;4982454;28;20206;-73
2022/05/20 08:21:15;;;;;;;14.20;8.63;;;25.20;99.90;;;;;;4982632;28;20201;-74
2022/05/20 08:23:44;;;;;;;11.73;8.75;;;25.00;99.90;;;;;;4983821;28;20240;-74
2022/05/20 08:26:10;;;;;;;10.13;7.97;;;24.80;99.90;;;;;;4981311;28;20228;-74
2022/05/20 08:28:37;;;;;;;12.93;8.35;;;24.40;99.90;;;;;;4980322;28;20225;-72
2022/05/20 08:31:04;;;;;;;13.55;9.38;;;24.40;99.90;;;;;;4978455;28;20208;-74
2022/05/20 08:33:31;;;;;;;16.33;9.23;;;24.10;99.90;;;;;;4979325;28;20236;-72
2022/05/20 08:35:58;;;;;;;12.60;8.88;;;23.90;99.90;;;;;;4976504;28;20231;-77
2022/05/20 08:38:25;;;;;;;13.23;8.90;;;24.00;99.90;;;;;;4985401;28;20574;-73
2022/05/20 08:40:53;;;;;;;14.13;8.77;;;24.10;99.90;;;;;;4984953;28;20228;-73
2022/05/20 08:43:24;;;;;;;10.90;8.98;;;24.20;99.90;;;;;;4975803;28;20193;-74
2022/05/20 08:45:52;;;;;;;16.27;9.05;;;24.30;99.90;;;;;;4975505;28;20224;-73
2022/05/20 08:48:19;;;;;;;15.77;9.43;;;24.40;99.90;;;;;;4979515;28;20560;-72
2022/05/20 08:50:52;;;;;;;11.45;8.90;;;24.60;99.90;;;;;;4976146;28;20204;-76
2022/05/20 08:53:42;;;;;;;13.35;8.27;;;24.70;99.90;;;;;;4976727;28;20674;-71
2022/05/20 08:56:12;;;;;;;13.50;9.02;;;24.80;99.90;;;;;;4972530;28;20535;-73
2022/05/20 08:58:46;;;;;;;12.55;7.95;;;25.00;99.90;;;;;;4974254;28;20657;-73
2022/05/20 09:01:13;;;;;;;16.02;9.45;;;25.40;99.90;;;;;;4973229;28;20280;-71
2022/05/20 09:03:40;;;;;;;15.90;10.00;;;25.70;99.90;;;;;;4976189;28;20201;-75
2022/05/20 09:06:10;;;;;;;16.45;8.32;;;25.90;99.90;;;;;;4978709;28;20606;-75
2022/05/20 09:08:37;;;;;;;14.43;8.32;;;26.10;99.90;;;;;;4979702;28;20266;-74
2022/05/20 09:11:11;;;;;;;14.18;9.65;;;26.40;99.90;;;;;;4984746;28;20275;-73
2022/05/20 09:16:28;;;;;;;11.57;7.97;;;26.70;99.90;;;;;;4980278;28;20229;-72
2022/05/20 09:19:22;;;;;;;13.13;7.75;;;27.00;99.90;;;;;;4978871;28;20201;-73
2022/05/20 09:22:01;;;;;;;9.90;7.50;;;27.30;99.90;;;;;;4987454;28;20193;-74
2022/05/20 09:24:36;;;;;;;12.10;7.70;;;27.40;99.90;;;;;;4982954;28;20201;-73
2022/05/20 09:27:12;;;;;;;13.77;8.05;;;27.50;99.90;;;;;;4979398;28;20492;-72
2022/05/20 09:29:46;;;;;;;13.30;7.88;;;27.30;99.90;;;;;;4976147;28;20197;-74
2022/05/20 09:32:37;;;;;;;12.50;8.10;;;27.60;99.90;;;;;;4976028;28;20214;-75
2022/05/20 09:35:22;;;;;;;12.00;7.95;;;27.60;99.90;;;;;;4976429;28;20676;-73
2022/05/20 09:37:51;;;;;;;12.85;8.05;;;27.60;99.90;;;;;;4982006;28;20192;-72
2022/05/20 09:40:41;;;;;;;15.40;7.53;;;27.80;99.90;;;;;;4977373;28;20243;-72
2022/05/20 09:43:31;;;;;;;12.57;7.93;;;27.90;99.90;;;;;;4979197;28;20578;-73
2022/05/20 09:46:00;;;;;;;12.45;8.23;;;28.00;99.90;;;;;;4983029;28;20228;-74
2022/05/20 09:48:45;;;;;;;14.20;8.57;;;28.20;99.90;;;;;;4976392;28;20626;-72
2022/05/20 09:51:16;;;;;;;14.65;9.88;;;28.20;99.90;;;;;;4972483;28;20214;-75
2022/05/20 09:53:57;;;;;;;16.52;9.27;;;28.20;99.90;;;;;;4974316;28;20206;-73
2022/05/20 09:56:29;;;;;;;12.32;9.15;;;28.20;99.90;;;;;;4983484;28;20220;-73
2022/05/20 09:59:26;;;;;;;15.90;10.05;;;28.20;99.90;;;;;;4978280;28;20247;-75
2022/05/20 10:02:03;;;;;;;14.25;9.95;;;28.40;99.90;;;;;;4983670;28;20317;-74
2022/05/20 10:04:41;;;;;;;12.43;8.40;;;28.40;99.90;;;;;;4986490;28;20197;-76
2022/05/20 10:07:13;;;;;;;10.00;8.63;;;28.40;99.90;;;;;;4984225;28;20220;-73
2022/05/20 10:09:50;;;;;;;13.95;9.00;;;28.50;99.90;;;;;;4982383;28;20201;-76
2022/05/20 10:12:32;;;;;;;13.60;9.20;;;28.70;99.90;;;;;;4983639;28;20204;-73
2022/05/20 10:15:03;;;;;;;14.85;10.32;;;28.80;99.90;;;;;;4984457;28;20281;-75
2022/05/20 10:17:56;;;;;;;15.32;11.18;;;28.80;99.90;;;;;;4979661;28;20236;-74
2022/05/20 10:20:40;;;;;;;15.85;9.90;;;28.80;99.90;;;;;;4988294;28;20604;-74
2022/05/20 10:23:44;;;;;;;18.55;11.35;;;28.70;99.90;;;;;;4984848;28;20551;-73
2022/05/20 10:26:20;;;;;;;14.07;10.95;;;28.90;99.90;;;;;;4981133;28;20228;-75
2022/05/20 10:34:58;;;;;;;15.52;11.07;;;29.40;99.90;;;;;;4981791;28;20283;-74
2022/05/20 10:37:58;;;;;;;17.52;11.98;;;29.20;99.90;;;;;;4988271;28;20220;-75
2022/05/20 10:40:53;;;;;;;16.88;10.80;;;29.30;99.90;;;;;;4985444;28;20577;-74
2022/05/20 10:49:50;;;;;;;12.48;10.50;;;29.10;99.90;;;;;;4981913;28;20826;-73
2022/05/20 10:52:57;;;;;;;16.98;12.50;;;29.20;99.90;;;;;;4980444;28;20204;-74
2022/05/20 10:55:27;;;;;;;16.52;11.60;;;29.20;99.90;;;;;;4984968;28;20746;-73
2022/05/20 10:58:09;;;;;;;17.98;11.32;;;29.30;99.90;;;;;;4981161;28;20673;-75
2022/05/20 11:00:52;;;;;;;16.08;11.10;;;29.60;99.90;;;;;;4988831;28;20189;-74
2022/05/20 11:03:56;;;;;;;15.48;12.13;;;30.00;99.90;;;;;;4987635;28;20208;-73
2022/05/20 11:06:30;;;;;;;16.00;10.60;;;30.20;99.90;;;;;;4976797;28;20223;-72
2022/05/20 11:09:07;;;;;;;16.77;10.98;;;30.20;99.90;;;;;;4987392;28;20197;-73
2022/05/20 11:11:51;;;;;;;16.50;12.57;;;30.30;99.90;;;;;;4979136;28;20215;-74
2022/05/20 11:14:37;;;;;;;14.27;10.45;;;30.20;99.90;;;;;;4983004;28;20205;-78
2022/05/20 11:17:31;;;;;;;15.45;11.85;;;30.50;99.90;;;;;;4982580;28;20221;-73
2022/05/20 11:20:16;;;;;;;14.48;10.63;;;30.80;99.90;;;;;;4979209;28;20217;-73
2022/05/20 11:22:43;;;;;;;18.27;10.88;;;30.90;99.90;;;;;;4983663;28;20263;-75
2022/05/20 11:25:37;;;;;;;14.98;10.13;;;30.90;99.90;;;;;;4981073;28;20669;-74
2022/05/20 11:28:13;;;;;;;13.18;9.52;;;31.00;99.90;;;;;;4984910;28;20197;-73
2022/05/20 11:30:56;;;;;;;16.58;10.13;;;31.00;99.90;;;;;;4980412;28;20197;-77
2022/05/20 11:33:33;;;;;;;18.50;10.52;;;31.00;99.90;;;;;;4981063;28;20216;-72
2022/05/20 11:36:09;;;;;;;14.93;10.50;;;31.20;99.90;;;;;;4981251;28;20225;-73
2022/05/20 11:38:41;;;;;;;14.52;10.20;;;31.50;99.90;;;;;;4985032;28;20200;-77
2022/05/20 11:41:23;;;;;;;14.98;9.73;;;31.60;99.90;;;;;;4988439;28;20201;-73
2022/05/20 11:44:22;;;;;;;15.75;10.30;;;31.80;99.90;;;;;;4980445;28;20193;-74
2022/05/20 11:47:35;;;;;;;15.75;10.05;;;31.90;99.90;;;;;;4984780;28;20247;-75
2022/05/20 11:50:34;;;;;;;15.48;9.68;;;31.60;99.90;;;;;;4983878;28;20201;-73
2022/05/20 11:53:18;;;;;;;13.90;8.90;;;31.10;99.90;;;;;;4975805;28;20216;-73
2022/05/20 11:56:19;;;;;;;12.95;9.48;;;31.00;99.90;;;;;;4984009;28;20640;-75
2022/05/20 11:59:03;;;;;;;11.25;8.65;;;31.40;99.90;;;;;;4986545;28;20200;-73
2022/05/20 12:01:31;;;;;;;12.38;9.32;;;31.40;99.90;;;;;;4983434;28;20196;-75
2022/05/20 12:04:07;;;;;;;18.45;9.10;;;31.80;99.90;;;;;;4977976;28;20470;-74
2022/05/20 12:06:41;;;;;;;15.40;9.10;;;32.20;99.90;;;;;;4987140;28;20603;-74
2022/05/20 12:09:35;;;;;;;13.38;8.75;;;32.10;99.90;;;;;;4984524;28;20216;-76
2022/05/20 12:12:15;;;;;;;11.57;9.00;;;31.60;99.90;;;;;;4977597;28;20214;-74
2022/05/20 12:14:53;;;;;;;10.93;8.65;;;31.20;99.90;;;;;;4979688;28;20200;-73
2022/05/20 12:17:40;;;;;;;11.07;8.50;;;30.70;99.90;;;;;;4978030;28;20606;-74
2022/05/20 12:26:19;;;;;;;11.38;8.82;;;30.60;99.90;;;;;;4980559;28;20221;-74
2022/05/20 12:28:46;;;;;;;11.27;8.00;;;30.50;99.90;;;;;;4976387;28;20205;-73
2022/05/20 12:31:23;;;;;;;13.68;8.05;;;30.70;99.90;;;;;;4975522;28;20200;-75
2022/05/20 12:34:10;;;;;;;11.50;9.00;;;30.80;99.90;;;;;;4979254;28;20200;-75
2022/05/20 12:36:41;;;;;;;12.85;10.05;;;30.90;99.90;;;;;;4980187;28;20378;-73
2022/05/20 12:39:12;;;;;;;11.30;8.27;;;30.60;99.90;;;;;;4978156;28;20584;-75
2022/05/20 12:41:44;;;;;;;13.77;8.70;;;30.70;99.90;;;;;;4985263;28;20283;-75
2022/05/20 12:44:16;;;;;;;13.68;8.13;;;30.70;99.90;;;;;;4981199;28;20229;-74
2022/05/20 12:47:14;;;;;;;9.80;8.35;;;30.90;99.90;;;;;;4978963;28;20229;-72
2022/05/20 12:49:58;;;;;;;10.88;8.15;;;31.10;99.90;;;;;;4977278;28;20192;-76
2022/05/20 12:52:34;;;;;;;11.90;8.48;;;31.10;99.90;;;;;;4973528;28;20216;-74
2022/05/20 12:55:21;;;;;;;10.88;7.78;;;30.80;99.90;;;;;;4977851;28;20196;-74
2022/05/20 12:58:00;;;;;;;11.55;8.50;;;30.80;99.90;;;;;;4973314;28;20572;-72
2022/05/20 13:00:33;;;;;;;11.73;8.40;;;30.70;99.90;;;;;;4979659;28;20197;-72
2022/05/20 13:03:23;;;;;;;13.63;8.13;;;30.20;99.90;;;;;;4974505;28;20189;-72
2022/05/20 13:05:59;;;;;;;11.18;7.93;;;29.40;99.90;;;;;;4979156;28;20276;-71
2022/05/20 13:08:29;;;;;;;13.23;8.00;;;28.80;99.90;;;;;;4980619;28;20201;-72
2022/05/20 13:11:05;;;;;;;15.40;8.95;;;28.40;99.90;;;;;;4980103;28;20201;-70
2022/05/20 13:13:32;;;;;;;14.73;8.98;;;28.10;99.90;;;;;;4978512;28;20197;-72
2022/05/20 13:16:01;;;;;;;11.00;8.02;;;28.20;99.90;;;;;;4976942;28;20252;-71
2022/05/20 13:18:31;;;;;;;11.93;7.75;;;28.60;99.90;;;;;;4981366;28;20686;-74
2022/05/20 13:21:02;;;;;;;10.77;7.32;;;28.90;99.90;;;;;;4980288;28;20205;-72
2022/05/20 13:23:35;;;;;;;15.90;8.13;;;29.30;99.90;;;;;;4985950;28;20238;-72
2022/05/20 13:26:03;;;;;;;11.27;7.35;;;29.60;99.90;;;;;;4978951;28;20225;-75
2022/05/20 13:28:36;;;;;;;10.05;7.72;;;29.30;99.90;;;;;;4979865;28;20209;-76
2022/05/20 13:31:09;;;;;;;12.00;7.10;;;29.30;99.90;;;;;;4976498;28;20197;-72
2022/05/20 13:33:40;;;;;;;11.50;7.60;;;29.30;99.90;;;;;;4979359;28;20205;-74
2022/05/20 13:36:12;;;;;;;11.25;7.35;;;29.20;99.90;;;;;;4982776;28;20221;-74
2022/05/20 13:38:45;;;;;;;15.93;8.65;;;29.10;99.90;;;;;;4980114;28;20266;-72
2022/05/20 13:41:12;;;;;;;11.25;8.18;;;28.90;99.90;;;;;;4985100;28;20204;-72
2022/05/20 13:43:40;;;;;;;10.30;7.20;;;28.70;99.90;;;;;;4985326;28;20201;-73
2022/05/20 13:49:14;;;;;;;11.95;7.07;;;28.90;99.90;;;;;;4978220;28;20236;-72
2022/05/20 13:51:54;;;;;;;10.77;7.40;;;29.20;99.90;;;;;;4983019;28;20216;-74
2022/05/20 13:54:28;;;;;;;10.18;7.30;;;29.80;99.90;;;;;;4987580;28;20197;-70